sensor_id;sensor_type;location;lat;lon;timestamp;pressure;altitude;pressure_sealevel;temperature
60966;BMP180;46834;51.100;6.886;2022-11-14T00:00:38;101063.00;;;11.60
60966;BMP180;46834;51.100;6.886;2022-11-14T00:03:06;101066.00;;;11.60
60966;BMP180;46834;51.100;6.886;2022-11-14T00:05:37;101076.00;;;11.60
60966;BMP180;46834;51.100;6.886;2022-11-14T00:08:03;101053.00;;;11.50
60966;BMP180;46834;51.100;6.886;2022-11-14T00:10:29;101064.00;;;11.40
60966;BMP180;46834;51.100;6.886;2022-11-14T00:12:55;101054.00;;;11.30
60966;BMP180;46834;51.100;6.886;2022-11-14T00:15:20;101065.00;;;11.30
60966;BMP180;46834;51.100;6.886;2022-11-14T00:17:46;101061.00;;;11.20
60966;BMP180;46834;51.100;6.886;2022-11-14T00:20:12;101055.00;;;11.10
60966;BMP180;46834;51.100;6.886;2022-11-14T00:22:38;101047.00;;;11.10
60966;BMP180;46834;51.100;6.886;2022-11-14T00:25:04;101056.00;;;11.00
60966;BMP180;46834;51.100;6.886;2022-11-14T00:27:30;101043.00;;;10.90
60966;BMP180;46834;51.100;6.886;2022-11-14T00:29:56;101032.00;;;10.90
60966;BMP180;46834;51.100;6.886;2022-11-14T00:32:21;101035.00;;;10.90
60966;BMP180;46834;51.100;6.886;2022-11-14T00:34:48;101048.00;;;10.80
60966;BMP180;46834;51.100;6.886;2022-11-14T00:37:14;101029.00;;;10.80
60966;BMP180;46834;51.100;6.886;2022-11-14T00:39:39;101032.00;;;10.80
60966;BMP180;46834;51.100;6.886;2022-11-14T00:42:05;101030.00;;;10.70
60966;BMP180;46834;51.100;6.886;2022-11-14T00:44:31;101033.00;;;10.70
60966;BMP180;46834;51.100;6.886;2022-11-14T00:46:56;101029.00;;;10.70
60966;BMP180;46834;51.100;6.886;2022-11-14T00:49:22;101029.00;;;10.60
60966;BMP180;46834;51.100;6.886;2022-11-14T00:51:48;101020.00;;;10.60
60966;BMP180;46834;51.100;6.886;2022-11-14T00:54:14;101020.00;;;10.60
60966;BMP180;46834;51.100;6.886;2022-11-14T00:56:39;101007.00;;;10.60
60966;BMP180;46834;51.100;6.886;2022-11-14T00:59:05;101024.00;;;10.60
60966;BMP180;46834;51.100;6.886;2022-11-14T01:01:31;101008.00;;;10.60
60966;BMP180;46834;51.100;6.886;2022-11-14T01:03:56;101004.00;;;10.60
60966;BMP180;46834;51.100;6.886;2022-11-14T01:06:22;101005.00;;;10.50
60966;BMP180;46834;51.100;6.886;2022-11-14T01:08:50;100997.00;;;10.50
60966;BMP180;46834;51.100;6.886;2022-11-14T01:11:20;101001.00;;;10.50
60966;BMP180;46834;51.100;6.886;2022-11-14T01:13:47;100998.00;;;10.50
60966;BMP180;46834;51.100;6.886;2022-11-14T01:16:12;100999.00;;;10.50
60966;BMP180;46834;51.100;6.886;2022-11-14T01:18:39;100997.00;;;10.50
60966;BMP180;46834;51.100;6.886;2022-11-14T01:21:10;100992.00;;;10.50
60966;BMP180;46834;51.100;6.886;2022-11-14T01:23:37;100997.00;;;10.50
60966;BMP180;46834;51.100;6.886;2022-11-14T01:26:13;100993.00;;;10.50
60966;BMP180;46834;51.100;6.886;2022-11-14T01:28:40;100986.00;;;10.50
60966;BMP180;46834;51.100;6.886;2022-11-14T01:31:16;100979.00;;;10.50
60966;BMP180;46834;51.100;6.886;2022-11-14T01:33:42;100962.00;;;10.50
60966;BMP180;46834;51.100;6.886;2022-11-14T01:36:09;100972.00;;;10.40
60966;BMP180;46834;51.100;6.886;2022-11-14T01:38:36;100972.00;;;10.40
60966;BMP180;46834;51.100;6.886;2022-11-14T01:41:04;100966.00;;;10.40
60966;BMP180;46834;51.100;6.886;2022-11-14T01:43:36;100962.00;;;10.40
60966;BMP180;46834;51.100;6.886;2022-11-14T01:49:07;100941.00;;;10.30
60966;BMP180;46834;51.100;6.886;2022-11-14T01:51:50;100946.00;;;10.30
60966;BMP180;46834;51.100;6.886;2022-11-14T01:54:28;100944.00;;;10.30
60966;BMP180;46834;51.100;6.886;2022-11-14T01:56:59;100943.00;;;10.30
60966;BMP180;46834;51.100;6.886;2022-11-14T01:59:36;100941.00;;;10.20
60966;BMP180;46834;51.100;6.886;2022-11-14T02:02:11;100947.00;;;10.20
60966;BMP180;46834;51.100;6.886;2022-11-14T02:04:44;100951.00;;;10.20
60966;BMP180;46834;51.100;6.886;2022-11-14T02:07:12;100942.00;;;10.20
60966;BMP180;46834;51.100;6.886;2022-11-14T02:09:43;100942.00;;;10.20
60966;BMP180;46834;51.100;6.886;2022-11-14T02:12:13;100954.00;;;10.20
60966;BMP180;46834;51.100;6.886;2022-11-14T02:14:42;100964.00;;;10.20
60966;BMP180;46834;51.100;6.886;2022-11-14T02:17:11;100951.00;;;10.20
60966;BMP180;46834;51.100;6.886;2022-11-14T02:19:53;100934.00;;;10.20
60966;BMP180;46834;51.100;6.886;2022-11-14T02:22:19;100950.00;;;10.20
60966;BMP180;46834;51.100;6.886;2022-11-14T02:24:45;100943.00;;;10.20
60966;BMP180;46834;51.100;6.886;2022-11-14T02:27:13;100947.00;;;10.20
60966;BMP180;46834;51.100;6.886;2022-11-14T02:29:39;100936.00;;;10.20
60966;BMP180;46834;51.100;6.886;2022-11-14T02:32:05;100951.00;;;10.20
60966;BMP180;46834;51.100;6.886;2022-11-14T02:34:31;100943.00;;;10.20
60966;BMP180;46834;51.100;6.886;2022-11-14T02:36:57;100942.00;;;10.20
60966;BMP180;46834;51.100;6.886;2022-11-14T02:39:23;100946.00;;;10.20
60966;BMP180;46834;51.100;6.886;2022-11-14T02:41:50;100943.00;;;10.20
60966;BMP180;46834;51.100;6.886;2022-11-14T02:44:16;100934.00;;;10.20
60966;BMP180;46834;51.100;6.886;2022-11-14T02:46:42;100936.00;;;10.20
60966;BMP180;46834;51.100;6.886;2022-11-14T02:49:08;100929.00;;;10.20
60966;BMP180;46834;51.100;6.886;2022-11-14T02:51:33;100925.00;;;10.20
60966;BMP180;46834;51.100;6.886;2022-11-14T02:53:59;100931.00;;;10.10
60966;BMP180;46834;51.100;6.886;2022-11-14T02:56:25;100933.00;;;10.10
60966;BMP180;46834;51.100;6.886;2022-11-14T02:58:51;100920.00;;;10.10
60966;BMP180;46834;51.100;6.886;2022-11-14T03:01:16;100917.00;;;10.00
60966;BMP180;46834;51.100;6.886;2022-11-14T03:03:42;100912.00;;;10.00
60966;BMP180;46834;51.100;6.886;2022-11-14T03:06:08;100910.00;;;10.00
60966;BMP180;46834;51.100;6.886;2022-11-14T03:08:33;100914.00;;;10.00
60966;BMP180;46834;51.100;6.886;2022-11-14T03:11:04;100904.00;;;9.90
60966;BMP180;46834;51.100;6.886;2022-11-14T03:13:30;100905.00;;;9.90
60966;BMP180;46834;51.100;6.886;2022-11-14T03:15:56;100900.00;;;9.90
60966;BMP180;46834;51.100;6.886;2022-11-14T03:18:22;100893.00;;;9.90
60966;BMP180;46834;51.100;6.886;2022-11-14T03:20:47;100891.00;;;9.90
60966;BMP180;46834;51.100;6.886;2022-11-14T03:23:13;100887.00;;;9.80
60966;BMP180;46834;51.100;6.886;2022-11-14T03:25:39;100894.00;;;9.80
60966;BMP180;46834;51.100;6.886;2022-11-14T03:28:04;100871.00;;;9.80
60966;BMP180;46834;51.100;6.886;2022-11-14T03:30:30;100885.00;;;9.80
60966;BMP180;46834;51.100;6.886;2022-11-14T03:32:56;100880.00;;;9.80
60966;BMP180;46834;51.100;6.886;2022-11-14T03:35:23;100867.00;;;9.80
60966;BMP180;46834;51.100;6.886;2022-11-14T03:37:48;100877.00;;;9.80
60966;BMP180;46834;51.100;6.886;2022-11-14T03:40:14;100876.00;;;9.80
60966;BMP180;46834;51.100;6.886;2022-11-14T03:42:40;100876.00;;;9.70
60966;BMP180;46834;51.100;6.886;2022-11-14T03:45:05;100879.00;;;9.70
60966;BMP180;46834;51.100;6.886;2022-11-14T03:47:31;100873.00;;;9.70
60966;BMP180;46834;51.100;6.886;2022-11-14T03:49:57;100874.00;;;9.70
60966;BMP180;46834;51.100;6.886;2022-11-14T03:52:22;100866.00;;;9.70
60966;BMP180;46834;51.100;6.886;2022-11-14T03:54:51;100859.00;;;9.70
60966;BMP180;46834;51.100;6.886;2022-11-14T03:57:16;100860.00;;;9.70
60966;BMP180;46834;51.100;6.886;2022-11-14T03:59:42;100870.00;;;9.70
60966;BMP180;46834;51.100;6.886;2022-11-14T04:02:07;100855.00;;;9.70
60966;BMP180;46834;51.100;6.886;2022-11-14T04:04:33;100865.00;;;9.70
60966;BMP180;46834;51.100;6.886;2022-11-14T04:06:59;100856.00;;;9.70
60966;BMP180;46834;51.100;6.886;2022-11-14T04:09:25;100864.00;;;9.70
60966;BMP180;46834;51.100;6.886;2022-11-14T04:11:50;100870.00;;;9.70
60966;BMP180;46834;51.100;6.886;2022-11-14T04:14:16;100853.00;;;9.60
60966;BMP180;46834;51.100;6.886;2022-11-14T04:16:42;100856.00;;;9.60
60966;BMP180;46834;51.100;6.886;2022-11-14T04:19:07;100855.00;;;9.60
60966;BMP180;46834;51.100;6.886;2022-11-14T04:21:33;100855.00;;;9.60
60966;BMP180;46834;51.100;6.886;2022-11-14T04:23:58;100858.00;;;9.60
60966;BMP180;46834;51.100;6.886;2022-11-14T04:26:24;100857.00;;;9.60
60966;BMP180;46834;51.100;6.886;2022-11-14T04:28:50;100845.00;;;9.60
60966;BMP180;46834;51.100;6.886;2022-11-14T04:31:15;100834.00;;;9.50
60966;BMP180;46834;51.100;6.886;2022-11-14T04:33:41;100843.00;;;9.50
60966;BMP180;46834;51.100;6.886;2022-11-14T04:36:07;100844.00;;;9.50
60966;BMP180;46834;51.100;6.886;2022-11-14T04:38:32;100839.00;;;9.50
60966;BMP180;46834;51.100;6.886;2022-11-14T04:40:58;100827.00;;;9.50
60966;BMP180;46834;51.100;6.886;2022-11-14T04:43:24;100816.00;;;9.40
60966;BMP180;46834;51.100;6.886;2022-11-14T04:45:49;100819.00;;;9.40
60966;BMP180;46834;51.100;6.886;2022-11-14T04:48:15;100828.00;;;9.40
60966;BMP180;46834;51.100;6.886;2022-11-14T04:50:41;100823.00;;;9.40
60966;BMP180;46834;51.100;6.886;2022-11-14T04:53:07;100821.00;;;9.40
60966;BMP180;46834;51.100;6.886;2022-11-14T04:55:32;100830.00;;;9.40
60966;BMP180;46834;51.100;6.886;2022-11-14T04:57:58;100807.00;;;9.40
60966;BMP180;46834;51.100;6.886;2022-11-14T05:00:26;100823.00;;;9.40
60966;BMP180;46834;51.100;6.886;2022-11-14T05:02:52;100814.00;;;9.40
60966;BMP180;46834;51.100;6.886;2022-11-14T05:05:18;100815.00;;;9.40
60966;BMP180;46834;51.100;6.886;2022-11-14T05:07:43;100810.00;;;9.40
60966;BMP180;46834;51.100;6.886;2022-11-14T05:10:09;100814.00;;;9.40
60966;BMP180;46834;51.100;6.886;2022-11-14T05:12:35;100812.00;;;9.40
60966;BMP180;46834;51.100;6.886;2022-11-14T05:15:00;100797.00;;;9.30
60966;BMP180;46834;51.100;6.886;2022-11-14T05:17:27;100814.00;;;9.30
60966;BMP180;46834;51.100;6.886;2022-11-14T05:19:52;100807.00;;;9.30
60966;BMP180;46834;51.100;6.886;2022-11-14T05:22:19;100828.00;;;9.30
60966;BMP180;46834;51.100;6.886;2022-11-14T05:24:45;100812.00;;;9.30
60966;BMP180;46834;51.100;6.886;2022-11-14T05:27:10;100816.00;;;9.30
60966;BMP180;46834;51.100;6.886;2022-11-14T05:29:36;100819.00;;;9.30
60966;BMP180;46834;51.100;6.886;2022-11-14T05:32:01;100815.00;;;9.30
60966;BMP180;46834;51.100;6.886;2022-11-14T05:34:27;100803.00;;;9.20
60966;BMP180;46834;51.100;6.886;2022-11-14T05:36:53;100798.00;;;9.20
60966;BMP180;46834;51.100;6.886;2022-11-14T05:39:19;100802.00;;;9.20
60966;BMP180;46834;51.100;6.886;2022-11-14T05:41:44;100786.00;;;9.20
60966;BMP180;46834;51.100;6.886;2022-11-14T05:44:10;100807.00;;;9.20
60966;BMP180;46834;51.100;6.886;2022-11-14T05:46:35;100783.00;;;9.20
60966;BMP180;46834;51.100;6.886;2022-11-14T05:49:01;100782.00;;;9.20
60966;BMP180;46834;51.100;6.886;2022-11-14T05:51:27;100767.00;;;9.20
60966;BMP180;46834;51.100;6.886;2022-11-14T05:53:53;100771.00;;;9.10
60966;BMP180;46834;51.100;6.886;2022-11-14T05:56:19;100778.00;;;9.10
60966;BMP180;46834;51.100;6.886;2022-11-14T05:58:45;100768.00;;;9.10
60966;BMP180;46834;51.100;6.886;2022-11-14T06:01:17;100768.00;;;9.10
60966;BMP180;46834;51.100;6.886;2022-11-14T06:03:45;100780.00;;;9.10
60966;BMP180;46834;51.100;6.886;2022-11-14T06:06:15;100784.00;;;9.10
60966;BMP180;46834;51.100;6.886;2022-11-14T06:08:41;100785.00;;;9.20
60966;BMP180;46834;51.100;6.886;2022-11-14T06:11:14;100788.00;;;9.20
60966;BMP180;46834;51.100;6.886;2022-11-14T06:13:40;100792.00;;;9.20
60966;BMP180;46834;51.100;6.886;2022-11-14T06:16:11;100789.00;;;9.20
60966;BMP180;46834;51.100;6.886;2022-11-14T06:18:37;100791.00;;;9.20
60966;BMP180;46834;51.100;6.886;2022-11-14T06:21:10;100801.00;;;9.20
60966;BMP180;46834;51.100;6.886;2022-11-14T06:23:36;100795.00;;;9.20
60966;BMP180;46834;51.100;6.886;2022-11-14T06:26:11;100798.00;;;9.20
60966;BMP180;46834;51.100;6.886;2022-11-14T06:28:39;100800.00;;;9.20
60966;BMP180;46834;51.100;6.886;2022-11-14T06:31:05;100804.00;;;9.20
60966;BMP180;46834;51.100;6.886;2022-11-14T06:33:36;100794.00;;;9.20
60966;BMP180;46834;51.100;6.886;2022-11-14T06:36:05;100799.00;;;9.20
60966;BMP180;46834;51.100;6.886;2022-11-14T06:38:33;100793.00;;;9.20
60966;BMP180;46834;51.100;6.886;2022-11-14T06:41:24;100796.00;;;9.20
60966;BMP180;46834;51.100;6.886;2022-11-14T06:43:51;100800.00;;;9.20
60966;BMP180;46834;51.100;6.886;2022-11-14T06:46:21;100788.00;;;9.20
60966;BMP180;46834;51.100;6.886;2022-11-14T06:48:49;100779.00;;;9.20
60966;BMP180;46834;51.100;6.886;2022-11-14T06:51:16;100789.00;;;9.20
60966;BMP180;46834;51.100;6.886;2022-11-14T06:53:42;100785.00;;;9.30
60966;BMP180;46834;51.100;6.886;2022-11-14T06:56:12;100783.00;;;9.30
60966;BMP180;46834;51.100;6.886;2022-11-14T06:58:42;100789.00;;;9.20
60966;BMP180;46834;51.100;6.886;2022-11-14T07:01:16;100806.00;;;9.20
60966;BMP180;46834;51.100;6.886;2022-11-14T07:03:43;100798.00;;;9.20
60966;BMP180;46834;51.100;6.886;2022-11-14T07:06:13;100803.00;;;9.20
60966;BMP180;46834;51.100;6.886;2022-11-14T07:08:39;100807.00;;;9.30
60966;BMP180;46834;51.100;6.886;2022-11-14T07:11:09;100784.00;;;9.20
60966;BMP180;46834;51.100;6.886;2022-11-14T07:13:37;100794.00;;;9.20
60966;BMP180;46834;51.100;6.886;2022-11-14T07:16:04;100809.00;;;9.30
60966;BMP180;46834;51.100;6.886;2022-11-14T07:18:31;100809.00;;;9.30
60966;BMP180;46834;51.100;6.886;2022-11-14T07:21:03;100812.00;;;9.30
60966;BMP180;46834;51.100;6.886;2022-11-14T07:23:33;100808.00;;;9.30
60966;BMP180;46834;51.100;6.886;2022-11-14T07:26:05;100810.00;;;9.30
60966;BMP180;46834;51.100;6.886;2022-11-14T07:28:36;100817.00;;;9.30
60966;BMP180;46834;51.100;6.886;2022-11-14T07:31:08;100803.00;;;9.30
60966;BMP180;46834;51.100;6.886;2022-11-14T07:33:33;100818.00;;;9.30
60966;BMP180;46834;51.100;6.886;2022-11-14T07:36:00;100809.00;;;9.40
60966;BMP180;46834;51.100;6.886;2022-11-14T07:38:26;100809.00;;;9.40
60966;BMP180;46834;51.100;6.886;2022-11-14T07:40:57;100810.00;;;9.40
60966;BMP180;46834;51.100;6.886;2022-11-14T07:43:23;100806.00;;;9.40
60966;BMP180;46834;51.100;6.886;2022-11-14T07:45:49;100820.00;;;9.50
60966;BMP180;46834;51.100;6.886;2022-11-14T07:48:16;100803.00;;;9.50
60966;BMP180;46834;51.100;6.886;2022-11-14T07:50:42;100800.00;;;9.60
60966;BMP180;46834;51.100;6.886;2022-11-14T07:53:08;100801.00;;;9.60
60966;BMP180;46834;51.100;6.886;2022-11-14T07:55:35;100806.00;;;9.60
60966;BMP180;46834;51.100;6.886;2022-11-14T07:58:02;100807.00;;;9.70
60966;BMP180;46834;51.100;6.886;2022-11-14T08:00:28;100807.00;;;9.70
60966;BMP180;46834;51.100;6.886;2022-11-14T08:02:54;100801.00;;;9.80
60966;BMP180;46834;51.100;6.886;2022-11-14T08:05:19;100800.00;;;9.80
60966;BMP180;46834;51.100;6.886;2022-11-14T08:07:45;100801.00;;;9.80
60966;BMP180;46834;51.100;6.886;2022-11-14T08:10:12;100797.00;;;9.90
60966;BMP180;46834;51.100;6.886;2022-11-14T08:12:39;100799.00;;;9.90
60966;BMP180;46834;51.100;6.886;2022-11-14T08:15:11;100802.00;;;9.90
60966;BMP180;46834;51.100;6.886;2022-11-14T08:17:37;100801.00;;;10.00
60966;BMP180;46834;51.100;6.886;2022-11-14T08:20:05;100797.00;;;10.00
60966;BMP180;46834;51.100;6.886;2022-11-14T08:22:32;100796.00;;;10.00
60966;BMP180;46834;51.100;6.886;2022-11-14T08:24:57;100797.00;;;10.00
60966;BMP180;46834;51.100;6.886;2022-11-14T08:27:24;100783.00;;;10.00
60966;BMP180;46834;51.100;6.886;2022-11-14T08:29:49;100785.00;;;10.10
60966;BMP180;46834;51.100;6.886;2022-11-14T08:32:17;100777.00;;;10.10
60966;BMP180;46834;51.100;6.886;2022-11-14T08:34:42;100781.00;;;10.10
60966;BMP180;46834;51.100;6.886;2022-11-14T08:37:08;100785.00;;;10.10
60966;BMP180;46834;51.100;6.886;2022-11-14T08:39:34;100772.00;;;10.10
60966;BMP180;46834;51.100;6.886;2022-11-14T08:42:00;100779.00;;;10.20
60966;BMP180;46834;51.100;6.886;2022-11-14T08:44:26;100787.00;;;10.20
60966;BMP180;46834;51.100;6.886;2022-11-14T08:46:51;100781.00;;;10.20
60966;BMP180;46834;51.100;6.886;2022-11-14T08:49:17;100770.00;;;10.30
60966;BMP180;46834;51.100;6.886;2022-11-14T08:51:43;100769.00;;;10.30
60966;BMP180;46834;51.100;6.886;2022-11-14T08:54:08;100768.00;;;10.30
60966;BMP180;46834;51.100;6.886;2022-11-14T08:56:34;100758.00;;;10.30
60966;BMP180;46834;51.100;6.886;2022-11-14T08:59:02;100768.00;;;10.30
60966;BMP180;46834;51.100;6.886;2022-11-14T09:01:28;100770.00;;;10.30
60966;BMP180;46834;51.100;6.886;2022-11-14T09:03:54;100771.00;;;10.30
60966;BMP180;46834;51.100;6.886;2022-11-14T09:06:20;100778.00;;;10.30
60966;BMP180;46834;51.100;6.886;2022-11-14T09:08:45;100773.00;;;10.30
60966;BMP180;46834;51.100;6.886;2022-11-14T09:11:11;100771.00;;;10.30
60966;BMP180;46834;51.100;6.886;2022-11-14T09:13:36;100781.00;;;10.30
60966;BMP180;46834;51.100;6.886;2022-11-14T09:16:02;100791.00;;;10.40
60966;BMP180;46834;51.100;6.886;2022-11-14T09:18:29;100777.00;;;10.40
60966;BMP180;46834;51.100;6.886;2022-11-14T09:21:01;100764.00;;;10.30
60966;BMP180;46834;51.100;6.886;2022-11-14T09:23:27;100775.00;;;10.40
60966;BMP180;46834;51.100;6.886;2022-11-14T09:25:53;100788.00;;;10.40
60966;BMP180;46834;51.100;6.886;2022-11-14T09:28:20;100781.00;;;10.40
60966;BMP180;46834;51.100;6.886;2022-11-14T09:30:45;100787.00;;;10.40
60966;BMP180;46834;51.100;6.886;2022-11-14T09:33:11;100790.00;;;10.40
60966;BMP180;46834;51.100;6.886;2022-11-14T09:35:37;100783.00;;;10.40
60966;BMP180;46834;51.100;6.886;2022-11-14T09:38:06;100778.00;;;10.40
60966;BMP180;46834;51.100;6.886;2022-11-14T09:41:03;100784.00;;;10.40
60966;BMP180;46834;51.100;6.886;2022-11-14T09:48:57;100767.00;;;10.50
60966;BMP180;46834;51.100;6.886;2022-11-14T09:51:29;100768.00;;;10.50
60966;BMP180;46834;51.100;6.886;2022-11-14T09:54:22;100769.00;;;10.50
60966;BMP180;46834;51.100;6.886;2022-11-14T09:56:49;100771.00;;;10.60
60966;BMP180;46834;51.100;6.886;2022-11-14T09:59:15;100778.00;;;10.60
60966;BMP180;46834;51.100;6.886;2022-11-14T10:02:04;100775.00;;;10.60
60966;BMP180;46834;51.100;6.886;2022-11-14T10:07:35;100762.00;;;10.60
60966;BMP180;46834;51.100;6.886;2022-11-14T10:13:35;100745.00;;;10.60
60966;BMP180;46834;51.100;6.886;2022-11-14T10:19:37;100737.00;;;10.60
60966;BMP180;46834;51.100;6.886;2022-11-14T10:25:32;100745.00;;;10.70
60966;BMP180;46834;51.100;6.886;2022-11-14T10:28:32;100732.00;;;10.70
60966;BMP180;46834;51.100;6.886;2022-11-14T10:31:13;100746.00;;;10.80
60966;BMP180;46834;51.100;6.886;2022-11-14T10:39:34;100733.00;;;10.90
60966;BMP180;46834;51.100;6.886;2022-11-14T10:42:19;100737.00;;;10.90
60966;BMP180;46834;51.100;6.886;2022-11-14T10:45:01;100744.00;;;10.90
60966;BMP180;46834;51.100;6.886;2022-11-14T10:47:38;100732.00;;;10.90
60966;BMP180;46834;51.100;6.886;2022-11-14T10:50:26;100736.00;;;10.90
60966;BMP180;46834;51.100;6.886;2022-11-14T10:53:00;100727.00;;;10.90
60966;BMP180;46834;51.100;6.886;2022-11-14T10:55:28;100740.00;;;11.00
60966;BMP180;46834;51.100;6.886;2022-11-14T10:57:54;100736.00;;;11.00
60966;BMP180;46834;51.100;6.886;2022-11-14T11:00:21;100731.00;;;11.00
60966;BMP180;46834;51.100;6.886;2022-11-14T11:02:55;100720.00;;;11.10
60966;BMP180;46834;51.100;6.886;2022-11-14T11:05:27;100732.00;;;11.10
60966;BMP180;46834;51.100;6.886;2022-11-14T11:07:58;100721.00;;;11.10
60966;BMP180;46834;51.100;6.886;2022-11-14T11:10:45;100729.00;;;11.10
60966;BMP180;46834;51.100;6.886;2022-11-14T11:13:46;100724.00;;;11.10
60966;BMP180;46834;51.100;6.886;2022-11-14T11:16:12;100706.00;;;11.20
60966;BMP180;46834;51.100;6.886;2022-11-14T11:18:38;100704.00;;;11.20
60966;BMP180;46834;51.100;6.886;2022-11-14T11:21:11;100698.00;;;11.20
60966;BMP180;46834;51.100;6.886;2022-11-14T11:23:55;100691.00;;;11.20
60966;BMP180;46834;51.100;6.886;2022-11-14T11:31:50;100705.00;;;11.20
60966;BMP180;46834;51.100;6.886;2022-11-14T11:34:24;100699.00;;;11.30
60966;BMP180;46834;51.100;6.886;2022-11-14T11:37:12;100719.00;;;11.30
60966;BMP180;46834;51.100;6.886;2022-11-14T11:39:48;100706.00;;;11.30
60966;BMP180;46834;51.100;6.886;2022-11-14T11:42:49;100709.00;;;11.30
60966;BMP180;46834;51.100;6.886;2022-11-14T11:45:18;100688.00;;;11.40
60966;BMP180;46834;51.100;6.886;2022-11-14T11:48:15;100682.00;;;11.40
60966;BMP180;46834;51.100;6.886;2022-11-14T11:50:41;100672.00;;;11.50
60966;BMP180;46834;51.100;6.886;2022-11-14T11:53:28;100673.00;;;11.50
60966;BMP180;46834;51.100;6.886;2022-11-14T11:56:14;100669.00;;;11.50
60966;BMP180;46834;51.100;6.886;2022-11-14T11:58:47;100664.00;;;11.60
60966;BMP180;46834;51.100;6.886;2022-11-14T12:01:14;100671.00;;;11.60
60966;BMP180;46834;51.100;6.886;2022-11-14T12:03:50;100667.00;;;11.60
60966;BMP180;46834;51.100;6.886;2022-11-14T12:06:28;100658.00;;;11.60
60966;BMP180;46834;51.100;6.886;2022-11-14T12:11:54;100659.00;;;11.70
60966;BMP180;46834;51.100;6.886;2022-11-14T12:14:53;100647.00;;;11.70
60966;BMP180;46834;51.100;6.886;2022-11-14T12:18:11;100641.00;;;11.70
60966;BMP180;46834;51.100;6.886;2022-11-14T12:24:09;100626.00;;;11.80
60966;BMP180;46834;51.100;6.886;2022-11-14T12:26:46;100611.00;;;11.90
60966;BMP180;46834;51.100;6.886;2022-11-14T12:29:47;100631.00;;;11.90
60966;BMP180;46834;51.100;6.886;2022-11-14T12:32:33;100624.00;;;11.90
60966;BMP180;46834;51.100;6.886;2022-11-14T12:35:06;100634.00;;;11.90
60966;BMP180;46834;51.100;6.886;2022-11-14T12:37:43;100627.00;;;11.90
60966;BMP180;46834;51.100;6.886;2022-11-14T12:40:33;100632.00;;;11.90
60966;BMP180;46834;51.100;6.886;2022-11-14T12:43:02;100636.00;;;12.00
60966;BMP180;46834;51.100;6.886;2022-11-14T12:48:28;100628.00;;;12.00
60966;BMP180;46834;51.100;6.886;2022-11-14T12:50:57;100631.00;;;12.00
60966;BMP180;46834;51.100;6.886;2022-11-14T12:59:37;100629.00;;;12.00
60966;BMP180;46834;51.100;6.886;2022-11-14T13:11:42;100652.00;;;11.90
60966;BMP180;46834;51.100;6.886;2022-11-14T13:14:29;100658.00;;;12.00
60966;BMP180;46834;51.100;6.886;2022-11-14T13:20:24;100655.00;;;11.90
60966;BMP180;46834;51.100;6.886;2022-11-14T13:28:48;100653.00;;;11.90
60966;BMP180;46834;51.100;6.886;2022-11-14T13:34:01;100642.00;;;11.90
60966;BMP180;46834;51.100;6.886;2022-11-14T13:45:47;100628.00;;;12.00
60966;BMP180;46834;51.100;6.886;2022-11-14T13:48:47;100632.00;;;12.00
60966;BMP180;46834;51.100;6.886;2022-11-14T13:51:21;100622.00;;;12.10
60966;BMP180;46834;51.100;6.886;2022-11-14T13:53:49;100633.00;;;12.10
60966;BMP180;46834;51.100;6.886;2022-11-14T13:56:52;100634.00;;;12.00
60966;BMP180;46834;51.100;6.886;2022-11-14T14:10:55;100616.00;;;12.00
60966;BMP180;46834;51.100;6.886;2022-11-14T14:16:50;100604.00;;;12.00
60966;BMP180;46834;51.100;6.886;2022-11-14T14:19:28;100595.00;;;12.10
60966;BMP180;46834;51.100;6.886;2022-11-14T14:22:15;100586.00;;;12.10
60966;BMP180;46834;51.100;6.886;2022-11-14T14:25:03;100582.00;;;12.00
60966;BMP180;46834;51.100;6.886;2022-11-14T14:31:13;100577.00;;;12.10
60966;BMP180;46834;51.100;6.886;2022-11-14T14:33:45;100569.00;;;12.10
60966;BMP180;46834;51.100;6.886;2022-11-14T14:36:23;100570.00;;;12.10
60966;BMP180;46834;51.100;6.886;2022-11-14T14:39:15;100580.00;;;12.10
60966;BMP180;46834;51.100;6.886;2022-11-14T14:41:41;100594.00;;;12.20
60966;BMP180;46834;51.100;6.886;2022-11-14T14:44:30;100600.00;;;12.10
60966;BMP180;46834;51.100;6.886;2022-11-14T14:49:41;100574.00;;;12.20
60966;BMP180;46834;51.100;6.886;2022-11-14T14:52:31;100565.00;;;12.20
60966;BMP180;46834;51.100;6.886;2022-11-14T14:54:58;100572.00;;;12.20
60966;BMP180;46834;51.100;6.886;2022-11-14T14:57:27;100577.00;;;12.20
60966;BMP180;46834;51.100;6.886;2022-11-14T15:00:23;100574.00;;;12.20
60966;BMP180;46834;51.100;6.886;2022-11-14T15:02:56;100565.00;;;12.20
60966;BMP180;46834;51.100;6.886;2022-11-14T15:05:25;100569.00;;;12.20
60966;BMP180;46834;51.100;6.886;2022-11-14T15:07:57;100568.00;;;12.20
60966;BMP180;46834;51.100;6.886;2022-11-14T15:10:27;100565.00;;;12.20
60966;BMP180;46834;51.100;6.886;2022-11-14T15:12:58;100558.00;;;12.20
60966;BMP180;46834;51.100;6.886;2022-11-14T15:15:25;100553.00;;;12.20
60966;BMP180;46834;51.100;6.886;2022-11-14T15:17:53;100555.00;;;12.20
60966;BMP180;46834;51.100;6.886;2022-11-14T15:20:27;100553.00;;;12.20
60966;BMP180;46834;51.100;6.886;2022-11-14T15:25:36;100550.00;;;12.20
60966;BMP180;46834;51.100;6.886;2022-11-14T15:28:02;100535.00;;;12.20
60966;BMP180;46834;51.100;6.886;2022-11-14T15:30:33;100538.00;;;12.20
60966;BMP180;46834;51.100;6.886;2022-11-14T15:33:23;100534.00;;;12.20
60966;BMP180;46834;51.100;6.886;2022-11-14T15:36:14;100537.00;;;12.20
60966;BMP180;46834;51.100;6.886;2022-11-14T15:39:03;100539.00;;;12.20
60966;BMP180;46834;51.100;6.886;2022-11-14T15:41:33;100540.00;;;12.30
60966;BMP180;46834;51.100;6.886;2022-11-14T15:43:59;100527.00;;;12.30
60966;BMP180;46834;51.100;6.886;2022-11-14T15:46:39;100538.00;;;12.20
60966;BMP180;46834;51.100;6.886;2022-11-14T15:49:25;100536.00;;;12.20
60966;BMP180;46834;51.100;6.886;2022-11-14T15:51:56;100534.00;;;12.20
60966;BMP180;46834;51.100;6.886;2022-11-14T15:54:32;100528.00;;;12.20
60966;BMP180;46834;51.100;6.886;2022-11-14T15:57:11;100531.00;;;12.20
60966;BMP180;46834;51.100;6.886;2022-11-14T15:59:38;100530.00;;;12.20
60966;BMP180;46834;51.100;6.886;2022-11-14T16:02:19;100522.00;;;12.20